Time;durP1;ratioP1;P1;durP2;ratioP2;P2;SDS_P1;SDS_P2;PMS_P1;PMS_P2;Temp;Humidity;BMP_temperature;BMP_pressure;BME280_temperature;BME280_humidity;BME280_pressure;Samples;Min_cycle;Max_cycle;Signal;HPM_P1;HPM_P2
2021/12/20 00:00:16;;;;;;;35.07;12.13;;;;;;;;;;6218588;23;20172;-90
2021/12/20 00:03:25;;;;;;;31.73;11.73;;;;;;;;;;6237357;23;20154;-91
2021/12/20 00:06:32;;;;;;;27.60;10.40;;;;;;;;;;6218743;23;20192;-90
2021/12/20 00:09:37;;;;;;;32.57;12.67;;;;;;;;;;6219284;23;20215;-91
2021/12/20 00:12:45;;;;;;;32.90;12.17;;;;;;;;;;6219414;23;20179;-89
2021/12/20 00:15:52;;;;;;;29.63;11.63;;;;;;;;;;6218417;23;20236;-90
2021/12/20 00:18:58;;;;;;;34.87;13.47;;;;;;;;;;6220464;23;20282;-89
2021/12/20 00:22:05;;;;;;;30.20;11.63;;;;;;;;;;6218965;23;20401;-91
2021/12/20 00:25:17;;;;;;;35.67;12.80;;;;;;;;;;6218521;23;20258;-90
2021/12/20 00:28:22;;;;;;;33.33;12.70;;;;;;;;;;6218602;23;20175;-91
2021/12/20 00:31:30;;;;;;;33.87;12.37;;;;;;;;;;6219093;23;20236;-89
2021/12/20 00:34:36;;;;;;;31.27;11.20;;;;;;;;;;6218734;23;20267;-91
2021/12/20 00:41:05;;;;;;;32.67;12.30;;;;;;;;;;6218562;23;20618;-90
2021/12/20 00:44:10;;;;;;;35.40;12.57;;;;;;;;;;6219087;23;20163;-90
2021/12/20 00:47:17;;;;;;;30.53;11.90;;;;;;;;;;6218210;23;20171;-88
2021/12/20 00:50:24;;;;;;;33.47;11.90;;;;;;;;;;6219004;23;20168;-89
2021/12/20 00:53:29;;;;;;;36.87;12.43;;;;;;;;;;6218431;23;20230;-89
2021/12/20 00:56:39;;;;;;;36.87;13.17;;;;;;;;;;6218659;23;20683;-89
2021/12/20 00:59:44;;;;;;;33.33;13.10;;;;;;;;;;6217464;23;20228;-93
2021/12/20 01:02:53;;;;;;;32.73;12.80;;;;;;;;;;6220431;23;20170;-90
2021/12/20 01:05:59;;;;;;;30.27;10.67;;;;;;;;;;6218997;23;20167;-90
2021/12/20 01:09:30;;;;;;;28.27;12.03;;;;;;;;;;6218451;23;20156;-89
2021/12/20 01:12:43;;;;;;;33.93;12.40;;;;;;;;;;6217895;23;20167;-91
2021/12/20 01:15:51;;;;;;;32.83;12.50;;;;;;;;;;6217193;23;20163;-90
2021/12/20 01:19:00;;;;;;;28.23;11.10;;;;;;;;;;6218574;23;20175;-93
2021/12/20 01:22:06;;;;;;;35.07;12.40;;;;;;;;;;6216261;23;20164;-90
2021/12/20 01:28:32;;;;;;;30.20;11.53;;;;;;;;;;6218951;23;20188;-89
2021/12/20 01:31:38;;;;;;;30.33;12.30;;;;;;;;;;6219073;23;20171;-91
2021/12/20 01:34:45;;;;;;;34.40;13.30;;;;;;;;;;6218772;23;20195;-90
2021/12/20 01:37:51;;;;;;;32.90;12.43;;;;;;;;;;6217411;23;20170;-91
2021/12/20 01:40:56;;;;;;;31.13;10.93;;;;;;;;;;6218028;23;20186;-89
2021/12/20 01:44:15;;;;;;;36.73;13.17;;;;;;;;;;6217269;23;20234;-88
2021/12/20 01:47:26;;;;;;;28.67;11.10;;;;;;;;;;6217670;23;20164;-91
2021/12/20 01:50:41;;;;;;;33.43;12.77;;;;;;;;;;6215380;23;20171;-90
2021/12/20 01:53:50;;;;;;;30.70;11.53;;;;;;;;;;6216320;23;20187;-90
2021/12/20 01:56:56;;;;;;;31.73;11.93;;;;;;;;;;6217422;23;20167;-88
2021/12/20 02:00:09;;;;;;;31.40;12.00;;;;;;;;;;6215347;23;20229;-89
2021/12/20 02:03:17;;;;;;;27.93;10.70;;;;;;;;;;6216325;23;20183;-90
2021/12/20 02:06:34;;;;;;;29.97;11.17;;;;;;;;;;6215662;23;20175;-90
2021/12/20 02:09:39;;;;;;;27.87;10.70;;;;;;;;;;6217248;23;20699;-88
2021/12/20 02:12:45;;;;;;;23.10;9.87;;;;;;;;;;6217037;23;20175;-90
2021/12/20 02:15:53;;;;;;;27.03;10.63;;;;;;;;;;6215851;23;20213;-91
2021/12/20 02:18:58;;;;;;;28.13;10.20;;;;;;;;;;6217068;23;20159;-89
2021/12/20 02:22:07;;;;;;;36.83;12.10;;;;;;;;;;6215401;23;20166;-89
2021/12/20 02:25:12;;;;;;;35.90;12.10;;;;;;;;;;6218016;23;20155;-89
2021/12/20 02:28:19;;;;;;;33.50;11.57;;;;;;;;;;6219074;23;20166;-89
2021/12/20 02:38:20;;;;;;;32.10;10.63;;;;;;;;;;6217376;23;20251;-89
2021/12/20 02:44:52;;;;;;;31.83;12.07;;;;;;;;;;6219073;23;20172;-91
2021/12/20 02:47:58;;;;;;;36.40;11.47;;;;;;;;;;6238321;23;20199;-89
2021/12/20 02:54:05;;;;;;;34.30;12.13;;;;;;;;;;6221163;22;20199;-91
2021/12/20 03:03:50;;;;;;;31.43;12.27;;;;;;;;;;6220693;23;20171;-88
2021/12/20 03:14:28;;;;;;;36.63;12.77;;;;;;;;;;6222989;23;20187;-91
2021/12/20 03:20:58;;;;;;;35.03;12.17;;;;;;;;;;6223723;23;20211;-89
2021/12/20 03:27:33;;;;;;;34.83;12.43;;;;;;;;;;6224150;23;20501;-92
2021/12/20 03:30:44;;;;;;;38.90;13.27;;;;;;;;;;6223020;23;20220;-91
2021/12/20 03:37:09;;;;;;;31.17;12.03;;;;;;;;;;6222868;23;20255;-91
2021/12/20 04:04:10;;;;;;;29.47;10.67;;;;;;;;;;6146634;23;20204;-91
2021/12/20 04:10:46;;;;;;;31.70;11.87;;;;;;;;;;6129517;23;20182;-90
2021/12/20 04:13:51;;;;;;;32.93;11.13;;;;;;;;;;6129254;23;20192;-93
2021/12/20 04:16:57;;;;;;;30.30;8.80;;;;;;;;;;6129010;23;20181;-93
2021/12/20 04:20:05;;;;;;;32.80;11.53;;;;;;;;;;6143006;23;20177;-90
2021/12/20 04:23:11;;;;;;;29.07;10.53;;;;;;;;;;6143621;23;20181;-89
2021/12/20 04:26:17;;;;;;;31.37;10.30;;;;;;;;;;6143872;23;20213;-92
2021/12/20 04:29:22;;;;;;;29.63;10.90;;;;;;;;;;6144271;23;20171;-89
2021/12/20 04:32:27;;;;;;;34.67;11.90;;;;;;;;;;6144333;23;20680;-91
2021/12/20 04:35:34;;;;;;;34.87;11.63;;;;;;;;;;6127715;23;20192;-90
2021/12/20 04:38:40;;;;;;;25.83;10.30;;;;;;;;;;6144767;23;20198;-92
2021/12/20 04:41:45;;;;;;;32.83;11.67;;;;;;;;;;6143225;23;20173;-90
2021/12/20 04:44:50;;;;;;;31.13;10.70;;;;;;;;;;6144128;23;20211;-88
2021/12/20 04:47:56;;;;;;;33.87;11.23;;;;;;;;;;6146900;23;20253;-91
2021/12/20 04:51:05;;;;;;;36.63;11.77;;;;;;;;;;6145940;23;20253;-92
2021/12/20 04:54:11;;;;;;;33.37;12.50;;;;;;;;;;6145184;23;20241;-91
2021/12/20 04:57:16;;;;;;;34.57;11.37;;;;;;;;;;6128016;23;20193;-91
2021/12/20 05:00:46;;;;;;;28.87;11.10;;;;;;;;;;6145138;23;20190;-90
2021/12/20 05:03:51;;;;;;;31.07;11.47;;;;;;;;;;6143212;23;20213;-92
2021/12/20 05:11:24;;;;;;;28.63;10.63;;;;;;;;;;6147787;23;20156;-91
2021/12/20 05:14:30;;;;;;;25.23;10.93;;;;;;;;;;6145097;23;20196;-91
2021/12/20 05:17:36;;;;;;;28.13;10.90;;;;;;;;;;6143561;23;20213;-91
2021/12/20 05:20:42;;;;;;;27.60;10.60;;;;;;;;;;6143643;23;20153;-92
2021/12/20 05:23:48;;;;;;;26.80;9.83;;;;;;;;;;6126771;23;20173;-91
2021/12/20 05:27:02;;;;;;;26.80;9.43;;;;;;;;;;6127148;23;20194;-91
2021/12/20 05:30:09;;;;;;;22.37;8.47;;;;;;;;;;6143256;23;20177;-91
2021/12/20 05:33:15;;;;;;;21.63;9.00;;;;;;;;;;6144867;23;20165;-92
2021/12/20 05:36:20;;;;;;;24.17;8.83;;;;;;;;;;6127168;23;20239;-91
2021/12/20 05:39:26;;;;;;;19.73;8.17;;;;;;;;;;6143163;23;20180;-90
2021/12/20 05:42:34;;;;;;;22.30;8.23;;;;;;;;;;6126911;23;20165;-91
2021/12/20 05:45:40;;;;;;;20.70;8.57;;;;;;;;;;6145386;23;20210;-89
2021/12/20 05:48:57;;;;;;;21.67;7.93;;;;;;;;;;6144403;23;20169;-90
2021/12/20 05:52:08;;;;;;;19.43;7.70;;;;;;;;;;6145510;23;20170;-91
2021/12/20 05:55:15;;;;;;;20.27;8.57;;;;;;;;;;6145987;23;20201;-90
2021/12/20 05:58:26;;;;;;;19.57;8.00;;;;;;;;;;6143348;23;20206;-91
2021/12/20 06:01:32;;;;;;;25.40;8.53;;;;;;;;;;6143701;23;20198;-90
2021/12/20 06:04:38;;;;;;;21.20;8.00;;;;;;;;;;6161650;23;20229;-89
2021/12/20 06:07:43;;;;;;;25.53;8.20;;;;;;;;;;6162013;23;20170;-90
2021/12/20 06:10:49;;;;;;;22.57;8.47;;;;;;;;;;6144886;23;20245;-88
2021/12/20 06:13:58;;;;;;;25.27;8.77;;;;;;;;;;6144740;23;20173;-89
2021/12/20 06:17:03;;;;;;;26.07;8.87;;;;;;;;;;6144767;23;20161;-89
2021/12/20 06:20:11;;;;;;;28.33;8.60;;;;;;;;;;6146437;23;20177;-90
2021/12/20 06:23:17;;;;;;;24.50;8.40;;;;;;;;;;6144509;23;20169;-91
2021/12/20 06:29:47;;;;;;;27.27;10.33;;;;;;;;;;6145647;23;20178;-90
2021/12/20 06:32:53;;;;;;;24.57;9.77;;;;;;;;;;6162534;23;20217;-91
2021/12/20 06:36:13;;;;;;;23.90;8.60;;;;;;;;;;6145460;23;20180;-91
2021/12/20 06:39:23;;;;;;;31.00;10.40;;;;;;;;;;6146033;23;20221;-91
2021/12/20 06:42:31;;;;;;;25.93;9.83;;;;;;;;;;6163145;23;20238;-92
2021/12/20 06:45:41;;;;;;;24.30;9.97;;;;;;;;;;6162362;23;20184;-91
2021/12/20 06:52:06;;;;;;;31.10;10.63;;;;;;;;;;6144245;23;20173;-93
2021/12/20 06:55:13;;;;;;;27.13;10.20;;;;;;;;;;6161625;23;20176;-90
2021/12/20 06:58:27;;;;;;;32.27;10.80;;;;;;;;;;6161486;23;20168;-92
2021/12/20 07:01:34;;;;;;;29.13;10.43;;;;;;;;;;6161238;23;20197;-92
2021/12/20 07:04:40;;;;;;;26.03;9.50;;;;;;;;;;6162167;23;20173;-91
2021/12/20 07:07:47;;;;;;;31.73;10.20;;;;;;;;;;6144755;23;20229;-94
2021/12/20 07:10:52;;;;;;;29.43;10.43;;;;;;;;;;6145448;23;20177;-91
2021/12/20 07:14:00;;;;;;;26.97;9.73;;;;;;;;;;6162205;23;20210;-92
2021/12/20 07:17:10;;;;;;;25.20;9.57;;;;;;;;;;6163383;23;20169;-94
2021/12/20 07:20:17;;;;;;;32.30;10.37;;;;;;;;;;6146097;23;20234;-93
2021/12/20 07:26:44;;;;;;;23.40;9.50;;;;;;;;;;6145854;23;20243;-93
2021/12/20 07:29:56;;;;;;;28.07;9.97;;;;;;;;;;6146137;23;20221;-93
2021/12/20 07:39:45;;;;;;;26.00;9.77;;;;;;;;;;6149066;23;20215;-94
2021/12/20 07:46:10;;;;;;;21.73;8.30;;;;;;;;;;6148192;23;20196;-93
2021/12/20 07:49:24;;;;;;;23.27;8.60;;;;;;;;;;6148647;23;20210;-92
